Time;durP1;ratioP1;P1;durP2;ratioP2;P2;SDS_P1;SDS_P2;PMS_P1;PMS_P2;Temp;Humidity;BMP_temperature;BMP_pressure;BME280_temperature;BME280_humidity;BME280_pressure;Samples;Min_cycle;Max_cycle;Signal;HPM_P1;HPM_P2
2021/11/12 00:13:38;;;;;;;21.58;3.67;;;13.20;99.30;;;;;;5110575;28;20078;-77
2021/11/12 00:16:05;;;;;;;22.90;3.92;;;13.20;99.20;;;;;;5109846;28;20028;-76
2021/11/12 00:18:32;;;;;;;23.70;4.63;;;13.10;99.20;;;;;;5092902;28;20111;-77
2021/11/12 00:21:01;;;;;;;17.52;3.58;;;13.10;99.20;;;;;;5113610;28;20155;-77
2021/11/12 00:23:29;;;;;;;26.65;4.68;;;13.00;99.10;;;;;;5113491;28;20023;-78
2021/11/12 00:25:55;;;;;;;20.65;4.30;;;13.00;99.10;;;;;;5114814;28;20115;-77
2021/11/12 00:28:24;;;;;;;;;;;13.00;99.10;;;;;;5115105;28;20031;-77
2021/11/12 00:31:03;;;;;;;25.67;3.70;;;12.90;99.20;;;;;;5113188;28;19970;-77
2021/11/12 00:38:56;;;;;;;19.02;3.42;;;12.80;99.20;;;;;;5094093;27;20031;-78
2021/11/12 00:47:03;;;;;;;27.23;4.53;;;12.70;99.30;;;;;;5094009;28;20090;-78
2021/11/12 00:49:33;;;;;;;25.17;4.68;;;12.70;99.30;;;;;;5112812;28;20402;-77
2021/11/12 00:52:03;;;;;;;24.40;5.53;;;12.60;99.30;;;;;;5112978;28;20028;-77
2021/11/12 00:54:29;;;;;;;18.38;3.58;;;12.60;99.30;;;;;;5112818;28;20031;-77
2021/11/12 00:56:55;;;;;;;22.73;4.20;;;12.50;99.40;;;;;;5114148;28;20024;-77
2021/11/12 00:59:21;;;;;;;28.30;4.40;;;12.50;99.40;;;;;;5114064;27;20130;-79
2021/11/12 01:01:48;;;;;;;25.55;4.68;;;12.50;99.50;;;;;;5096135;28;20031;-78
2021/11/12 01:04:20;;;;;;;21.23;4.78;;;12.50;99.50;;;;;;5114026;28;20031;-77
2021/11/12 01:06:47;;;;;;;23.40;4.72;;;12.40;99.60;;;;;;5112592;28;20024;-77
2021/11/12 01:09:15;;;;;;;26.98;4.65;;;12.40;99.80;;;;;;5112435;28;20036;-77
2021/11/12 01:11:43;;;;;;;30.92;5.45;;;12.40;99.60;;;;;;5112410;28;20027;-76
2021/11/12 01:14:11;;;;;;;30.92;4.20;;;12.40;99.70;;;;;;5112547;28;20352;-77
2021/11/12 01:16:37;;;;;;;24.77;4.85;;;12.50;99.80;;;;;;5113716;28;20026;-77
2021/11/12 01:19:05;;;;;;;31.02;5.30;;;12.50;99.80;;;;;;5112251;28;20077;-77
2021/11/12 01:21:31;;;;;;;25.27;5.07;;;12.60;99.80;;;;;;5113470;28;20034;-76
2021/11/12 01:23:58;;;;;;;24.45;5.05;;;12.70;99.70;;;;;;5112494;28;20033;-76
2021/11/12 01:26:25;;;;;;;29.35;4.75;;;12.70;99.60;;;;;;5112244;28;20028;-77
2021/11/12 01:28:52;;;;;;;26.35;4.82;;;12.80;99.60;;;;;;5113369;28;20028;-78
2021/11/12 01:31:20;;;;;;;29.83;5.00;;;12.80;99.60;;;;;;5112684;28;20032;-76
2021/11/12 01:33:46;;;;;;;24.63;5.78;;;12.90;99.60;;;;;;5112031;28;20267;-77
2021/11/12 01:36:27;;;;;;;27.60;4.90;;;13.00;99.70;;;;;;5112150;28;20031;-76
2021/11/12 01:38:56;;;;;;;25.13;5.65;;;13.10;99.60;;;;;;5113287;28;20470;-77
2021/11/12 01:41:24;;;;;;;24.17;4.35;;;13.10;99.50;;;;;;5113365;28;20034;-77
2021/11/12 01:43:56;;;;;;;24.05;4.82;;;13.20;99.30;;;;;;5095332;28;20028;-76
2021/11/12 01:46:30;;;;;;;20.73;4.75;;;13.30;99.20;;;;;;5112022;28;20107;-77
2021/11/12 01:49:39;;;;;;;22.40;4.57;;;13.30;99.00;;;;;;5112883;28;20517;-77
2021/11/12 01:51:57;;;;;;;22.67;4.90;;;13.40;98.80;;;;;;5103601;28;20047;-77
2021/11/12 01:54:47;;;;;;;20.88;4.05;;;13.30;98.60;;;;;;5112152;28;20027;-76
2021/11/12 02:00:20;;;;;;;23.10;4.28;;;13.10;98.50;;;;;;5037966;28;20072;-76
2021/11/12 02:02:46;;;;;;;16.27;2.97;;;13.00;98.60;;;;;;5102253;28;20032;-76
2021/11/12 02:05:13;;;;;;;28.75;5.43;;;13.00;98.60;;;;;;5111527;28;20085;-77
2021/11/12 02:07:39;;;;;;;22.77;4.43;;;13.00;98.60;;;;;;5111630;28;20558;-77
2021/11/12 02:10:06;;;;;;;;;;;12.90;98.60;;;;;;5113179;28;20023;-77
2021/11/12 02:12:42;;;;;;;23.87;4.47;;;12.90;98.60;;;;;;5111377;28;19956;-78
2021/11/12 02:15:08;;;;;;;19.83;5.00;;;13.00;98.50;;;;;;5112735;28;20356;-76
2021/11/12 02:17:36;;;;;;;28.00;4.28;;;13.00;98.40;;;;;;5112665;28;20056;-78
2021/11/12 02:22:33;;;;;;;21.90;4.38;;;13.10;98.30;;;;;;5112815;28;20020;-77
2021/11/12 02:25:07;;;;;;;24.65;5.22;;;13.10;98.30;;;;;;5111066;28;20487;-77
2021/11/12 02:28:18;;;;;;;16.48;3.70;;;13.10;98.10;;;;;;5111133;28;20038;-77
2021/11/12 02:30:27;;;;;;;25.38;4.40;;;13.10;98.00;;;;;;5104525;28;20073;-79
2021/11/12 02:33:03;;;;;;;23.27;4.18;;;13.10;97.90;;;;;;5112268;28;20057;-78
2021/11/12 02:35:30;;;;;;;23.60;3.97;;;13.10;97.90;;;;;;5110867;28;20070;-78
2021/11/12 02:37:57;;;;;;;20.48;4.15;;;13.20;97.80;;;;;;5111036;28;20024;-77
2021/11/12 02:40:23;;;;;;;27.85;5.05;;;13.10;97.70;;;;;;5093994;28;20046;-78
2021/11/12 02:42:48;;;;;;;19.25;4.10;;;13.10;97.60;;;;;;5109843;28;20035;-79
2021/11/12 02:45:14;;;;;;;24.92;4.95;;;13.10;97.50;;;;;;5112125;28;20042;-78
2021/11/12 02:47:40;;;;;;;23.88;4.13;;;13.10;97.50;;;;;;5093480;28;20066;-77
2021/11/12 02:50:06;;;;;;;17.70;4.30;;;13.00;97.40;;;;;;5111928;28;20035;-77
2021/11/12 02:52:32;;;;;;;18.60;3.67;;;13.00;97.40;;;;;;5112107;28;20032;-77
2021/11/12 02:54:58;;;;;;;18.58;3.15;;;13.00;97.40;;;;;;5110719;28;20110;-76
2021/11/12 02:57:27;;;;;;;29.98;4.47;;;13.10;97.30;;;;;;5110520;28;20035;-78
2021/11/12 02:59:53;;;;;;;16.98;3.65;;;13.00;97.30;;;;;;5110557;28;20028;-79
2021/11/12 03:02:19;;;;;;;24.40;4.55;;;13.00;97.30;;;;;;5110535;28;20031;-79
2021/11/12 03:04:45;;;;;;;24.10;4.57;;;13.00;97.30;;;;;;5110576;28;20038;-77
2021/11/12 03:07:11;;;;;;;21.92;4.57;;;13.00;97.20;;;;;;5111726;28;20102;-78
2021/11/12 03:09:37;;;;;;;22.92;3.88;;;13.00;97.30;;;;;;5110440;28;20040;-78
2021/11/12 03:12:04;;;;;;;32.45;4.40;;;13.10;97.40;;;;;;5111685;28;20020;-78
2021/11/12 03:14:30;;;;;;;31.20;4.28;;;13.00;97.40;;;;;;5111558;28;20028;-78
2021/11/12 03:16:56;;;;;;;;;;;13.00;97.40;;;;;;5110830;28;20063;-76
2021/11/12 03:19:25;;;;;;;23.65;4.18;;;13.00;97.50;;;;;;5110234;28;19939;-77
2021/11/12 03:21:54;;;;;;;26.77;4.57;;;13.00;97.40;;;;;;5093800;28;20127;-78
2021/11/12 03:27:06;;;;;;;30.65;4.75;;;13.00;97.60;;;;;;5111593;28;20351;-78
2021/11/12 04:18:31;;;;;;;28.23;4.65;;;13.20;96.90;;;;;;5114934;28;20069;-78
2021/11/12 05:26:32;;;;;;;13.73;3.70;;;12.90;95.40;;;;;;5113807;28;20428;-77
2021/11/12 05:34:47;;;;;;;18.85;3.10;;;12.80;95.60;;;;;;5113810;28;20382;-76
2021/11/12 05:56:07;;;;;;;12.13;2.33;;;12.50;96.00;;;;;;5112347;28;20460;-77
2021/11/12 05:58:34;;;;;;;15.02;2.70;;;12.50;96.00;;;;;;5111626;28;20023;-76
2021/11/12 06:01:00;;;;;;;18.13;2.60;;;12.60;96.10;;;;;;5094894;28;20032;-78
2021/11/12 06:03:26;;;;;;;12.48;2.63;;;12.60;96.10;;;;;;5113051;28;20039;-77
2021/11/12 06:05:51;;;;;;;14.65;2.63;;;12.60;96.10;;;;;;5111546;28;20048;-78
2021/11/12 06:08:17;;;;;;;15.65;2.35;;;12.60;96.10;;;;;;5111424;28;20039;-79
2021/11/12 06:10:43;;;;;;;13.50;2.50;;;12.70;96.20;;;;;;5111264;28;20451;-78
2021/11/12 06:13:09;;;;;;;;;;;12.60;96.20;;;;;;5111858;28;20024;-77
2021/11/12 06:15:35;;;;;;;17.95;3.10;;;12.70;96.30;;;;;;5112664;28;19911;-77
2021/11/12 06:18:01;;;;;;;13.30;2.47;;;12.70;96.30;;;;;;5110955;28;20024;-77
2021/11/12 06:20:27;;;;;;;;;;;12.70;96.40;;;;;;5113093;28;20039;-77
2021/11/12 06:22:53;;;;;;;11.95;2.08;;;12.60;96.50;;;;;;5112390;28;19911;-77
2021/11/12 06:25:19;;;;;;;14.73;3.17;;;12.60;96.50;;;;;;5094153;28;20028;-78
2021/11/12 06:27:45;;;;;;;14.98;3.03;;;12.60;96.50;;;;;;5112102;28;20028;-77
2021/11/12 06:30:11;;;;;;;;;;;12.60;96.60;;;;;;5094445;28;20040;-76
2021/11/12 06:32:37;;;;;;;14.38;2.92;;;12.60;96.60;;;;;;5110973;28;19914;-78
2021/11/12 06:35:03;;;;;;;14.75;2.13;;;12.60;96.50;;;;;;5094176;28;20039;-76
2021/11/12 06:37:28;;;;;;;;;;;12.60;96.60;;;;;;5112677;28;20055;-77
2021/11/12 06:39:54;;;;;;;11.60;2.22;;;12.60;96.60;;;;;;5110678;28;19988;-77
2021/11/12 06:42:23;;;;;;;13.35;3.03;;;12.60;96.60;;;;;;5110945;28;20027;-78
2021/11/12 06:50:13;;;;;;;10.02;1.98;;;12.60;96.70;;;;;;5110726;28;20074;-78
2021/11/12 06:52:41;;;;;;;16.27;2.90;;;12.60;96.70;;;;;;5112037;28;20044;-77
2021/11/12 06:55:09;;;;;;;15.55;2.75;;;12.60;96.70;;;;;;5110641;28;20031;-77
2021/11/12 06:57:35;;;;;;;16.73;3.75;;;12.60;96.80;;;;;;5111724;28;20024;-77
2021/11/12 07:00:03;;;;;;;15.18;2.63;;;12.60;96.80;;;;;;5112071;28;20176;-76
2021/11/12 07:02:29;;;;;;;13.57;3.03;;;12.70;96.90;;;;;;5111509;27;20046;-79
2021/11/12 07:04:55;;;;;;;18.55;2.55;;;12.70;96.90;;;;;;5111683;28;20389;-76
2021/11/12 07:07:21;;;;;;;20.60;3.30;;;12.60;96.90;;;;;;5110114;28;20040;-78
2021/11/12 07:09:47;;;;;;;13.75;3.20;;;12.60;97.00;;;;;;5111470;28;20028;-78
2021/11/12 07:12:14;;;;;;;16.40;3.20;;;12.60;97.10;;;;;;5111635;28;20473;-77
2021/11/12 07:14:42;;;;;;;18.45;3.97;;;12.60;97.10;;;;;;5111794;28;20051;-79
2021/11/12 07:17:07;;;;;;;13.88;2.40;;;12.60;97.20;;;;;;5110132;28;20031;-78
2021/11/12 07:19:33;;;;;;;16.35;2.97;;;12.60;97.30;;;;;;5110112;28;20035;-77
2021/11/12 07:22:00;;;;;;;16.27;4.18;;;12.60;97.50;;;;;;5093381;28;20036;-78
2021/11/12 07:24:27;;;;;;;21.65;3.65;;;12.50;97.60;;;;;;5110295;28;20107;-78
2021/11/12 07:26:53;;;;;;;19.27;3.55;;;12.40;97.80;;;;;;5111101;28;20024;-78
2021/11/12 07:29:21;;;;;;;;;;;12.40;98.00;;;;;;5111735;28;20541;-78
2021/11/12 07:31:46;;;;;;;17.83;2.60;;;12.40;98.20;;;;;;5115410;28;19987;-77
2021/11/12 07:34:13;;;;;;;14.02;2.40;;;12.40;98.30;;;;;;5115534;28;20055;-78
2021/11/12 07:36:43;;;;;;;18.05;3.15;;;12.30;98.50;;;;;;5114656;28;20045;-78
2021/11/12 07:42:08;;;;;;;18.02;3.20;;;12.20;98.80;;;;;;5116049;28;20047;-77
2021/11/12 07:49:37;;;;;;;11.55;2.58;;;12.20;99.20;;;;;;5114880;28;20694;-76
2021/11/12 07:52:05;;;;;;;13.77;2.50;;;12.20;99.30;;;;;;5113701;28;20024;-78
2021/11/12 07:54:31;;;;;;;9.40;2.58;;;12.30;99.40;;;;;;5097479;28;20020;-77
2021/11/12 07:56:56;;;;;;;17.25;2.40;;;12.30;99.40;;;;;;5113898;28;20027;-76
2021/11/12 07:59:22;;;;;;;9.38;2.10;;;12.20;99.40;;;;;;5096433;28;20127;-76
2021/11/12 08:01:48;;;;;;;7.90;1.42;;;12.20;99.50;;;;;;5113684;28;20066;-76
2021/11/12 08:04:14;;;;;;;13.27;2.30;;;12.20;99.70;;;;;;5113569;28;20427;-76
2021/11/12 08:06:40;;;;;;;11.38;2.75;;;12.20;99.80;;;;;;5113567;28;20069;-77
2021/11/12 08:09:12;;;;;;;10.23;1.92;;;12.10;99.90;;;;;;5114627;28;20031;-76
2021/11/12 08:11:48;;;;;;;13.77;2.20;;;12.10;99.90;;;;;;5115072;28;20020;-77
2021/11/12 08:14:35;;;;;;;10.50;1.77;;;12.10;99.90;;;;;;5113601;28;20020;-76
2021/11/12 08:22:40;;;;;;;11.25;1.67;;;12.10;99.90;;;;;;5113475;28;20032;-77
2021/11/12 08:45:44;;;;;;;7.57;1.35;;;12.20;99.90;;;;;;5112856;28;20032;-79
2021/11/12 08:48:17;;;;;;;8.20;1.60;;;12.20;99.90;;;;;;5113805;28;20056;-76
2021/11/12 08:50:44;;;;;;;4.43;1.13;;;12.20;99.90;;;;;;5112428;28;20028;-78
2021/11/12 08:53:12;;;;;;;7.85;2.03;;;12.30;99.90;;;;;;5112266;28;20027;-76
2021/11/12 08:55:39;;;;;;;6.22;1.20;;;12.30;99.90;;;;;;5112224;28;20028;-76
2021/11/12 08:58:07;;;;;;;5.32;1.00;;;12.30;99.90;;;;;;5111932;28;20024;-78
2021/11/12 09:00:34;;;;;;;6.30;1.30;;;12.40;99.90;;;;;;5112904;28;20055;-77
2021/11/12 09:03:01;;;;;;;9.02;1.33;;;12.40;99.90;;;;;;5104130;28;20036;-77
2021/11/12 09:05:28;;;;;;;3.58;1.20;;;12.40;99.90;;;;;;5100610;28;20034;-76
2021/11/12 09:07:55;;;;;;;6.35;1.10;;;12.40;99.90;;;;;;5094054;28;20035;-78
2021/11/12 09:10:23;;;;;;;5.80;1.70;;;12.40;99.90;;;;;;5085602;28;20039;-76
2021/11/12 09:12:55;;;;;;;6.22;1.25;;;12.40;99.90;;;;;;5102324;28;20497;-77
2021/11/12 09:15:28;;;;;;;7.93;1.65;;;12.40;99.90;;;;;;5100008;28;20020;-77
2021/11/12 09:17:56;;;;;;;5.30;1.30;;;12.40;99.90;;;;;;5100251;28;20410;-77
2021/11/12 09:20:22;;;;;;;6.00;1.25;;;12.40;99.90;;;;;;5101674;28;20027;-77
2021/11/12 09:22:48;;;;;;;6.93;1.40;;;12.40;99.90;;;;;;5084561;28;20031;-78
2021/11/12 09:25:14;;;;;;;6.85;1.33;;;12.40;99.90;;;;;;5101447;28;20022;-77
2021/11/12 09:27:40;;;;;;;4.75;1.30;;;12.50;99.90;;;;;;5102271;28;20414;-77
2021/11/12 09:30:07;;;;;;;;;;;12.50;99.90;;;;;;5083561;28;20032;-77
2021/11/12 09:32:33;;;;;;;3.95;1.02;;;12.50;99.90;;;;;;5099829;28;20267;-79
2021/11/12 09:34:59;;;;;;;5.53;0.90;;;12.50;99.90;;;;;;5101436;28;20028;-78
2021/11/12 09:37:25;;;;;;;4.68;1.80;;;12.50;99.90;;;;;;5101868;28;20534;-77
2021/11/12 09:39:57;;;;;;;6.07;1.80;;;12.50;99.90;;;;;;5102111;28;20043;-76
2021/11/12 09:42:34;;;;;;;7.28;1.52;;;12.60;99.90;;;;;;5102091;28;20324;-78
2021/11/12 09:45:00;;;;;;;5.63;0.80;;;12.60;99.90;;;;;;5098813;28;20492;-77
2021/11/12 09:47:27;;;;;;;;;;;12.60;99.90;;;;;;5080606;28;20469;-77
2021/11/12 09:49:59;;;;;;;4.80;0.85;;;12.60;99.90;;;;;;5082885;28;19916;-77
2021/11/12 09:52:26;;;;;;;6.05;1.60;;;12.70;99.90;;;;;;5099552;28;20016;-76
2021/11/12 09:54:53;;;;;;;9.80;1.17;;;12.70;99.90;;;;;;5099835;28;20427;-77
2021/11/12 09:57:20;;;;;;;11.10;2.38;;;12.80;99.90;;;;;;5103634;28;20024;-78
2021/11/12 09:59:52;;;;;;;12.88;2.22;;;12.70;99.90;;;;;;5099586;28;20115;-78
2021/11/12 10:02:18;;;;;;;5.75;1.30;;;12.80;99.90;;;;;;5101959;28;20020;-78
2021/11/12 10:04:45;;;;;;;9.07;2.05;;;12.80;99.90;;;;;;5101132;28;20104;-78
2021/11/12 10:07:13;;;;;;;8.38;1.38;;;12.80;99.90;;;;;;5109360;28;20070;-77
2021/11/12 10:09:42;;;;;;;5.88;1.33;;;12.80;99.90;;;;;;5098479;28;20028;-77
2021/11/12 10:12:09;;;;;;;4.25;1.15;;;12.80;99.90;;;;;;5092974;28;20020;-77
2021/11/12 10:14:52;;;;;;;5.72;1.38;;;12.80;99.90;;;;;;5101042;28;20088;-77
2021/11/12 10:17:22;;;;;;;7.88;1.98;;;12.90;99.90;;;;;;5103690;28;20056;-77
2021/11/12 10:19:52;;;;;;;6.65;1.42;;;12.90;99.90;;;;;;5100540;28;20514;-78
2021/11/12 10:22:27;;;;;;;5.82;1.38;;;13.00;99.90;;;;;;5103488;28;20035;-78
2021/11/12 10:24:54;;;;;;;7.28;1.20;;;13.10;99.90;;;;;;5095480;28;20055;-78
2021/11/12 10:27:27;;;;;;;6.55;1.42;;;13.20;99.90;;;;;;5107211;28;20559;-78
2021/11/12 10:29:57;;;;;;;8.63;2.40;;;13.30;99.90;;;;;;5105861;28;20104;-78
2021/11/12 10:32:31;;;;;;;7.22;2.22;;;13.40;99.90;;;;;;5104444;28;20016;-76
2021/11/12 10:35:07;;;;;;;6.63;1.58;;;13.50;99.90;;;;;;5100199;28;20057;-77
2021/11/12 10:37:34;;;;;;;8.15;1.50;;;13.50;99.90;;;;;;5101363;28;20028;-76
2021/11/12 10:40:13;;;;;;;7.28;1.23;;;13.50;99.90;;;;;;5099805;28;20389;-76
2021/11/12 10:42:42;;;;;;;5.38;1.10;;;13.50;99.90;;;;;;5109405;28;20031;-76
2021/11/12 10:45:15;;;;;;;2.90;0.88;;;13.50;99.90;;;;;;5104453;28;20473;-76
2021/11/12 10:47:52;;;;;;;5.35;2.17;;;13.60;99.90;;;;;;5094490;28;20067;-78
2021/11/12 10:50:20;;;;;;;4.65;1.38;;;13.60;99.90;;;;;;5106538;28;20501;-78
2021/11/12 10:52:47;;;;;;;6.05;1.60;;;13.60;99.90;;;;;;5104689;28;20023;-77
2021/11/12 10:55:17;;;;;;;6.93;1.42;;;13.60;99.90;;;;;;5092869;28;20028;-77
2021/11/12 10:57:52;;;;;;;5.35;1.40;;;13.60;99.90;;;;;;5093074;28;20127;-76
2021/11/12 11:00:21;;;;;;;3.65;0.90;;;13.60;99.90;;;;;;5097893;28;20101;-77
2021/11/12 11:02:46;;;;;;;4.28;1.60;;;13.80;99.90;;;;;;5099144;28;20027;-76
2021/11/12 11:05:23;;;;;;;8.25;1.80;;;13.90;99.90;;;;;;5095867;28;20024;-78
2021/11/12 11:07:55;;;;;;;3.35;1.45;;;14.10;99.90;;;;;;5104583;28;20080;-76
2021/11/12 11:10:25;;;;;;;4.68;0.90;;;14.20;99.90;;;;;;5098460;28;20031;-77
2021/11/12 11:12:52;;;;;;;6.82;1.52;;;14.30;99.90;;;;;;5100746;28;20024;-76
2021/11/12 11:15:48;;;;;;;4.18;1.15;;;14.20;99.90;;;;;;5097439;28;20374;-78
2021/11/12 11:18:21;;;;;;;7.03;1.33;;;14.20;99.90;;;;;;5079547;28;20161;-75
2021/11/12 11:20:49;;;;;;;6.60;1.38;;;14.10;99.90;;;;;;5101903;28;20028;-76
2021/11/12 11:23:17;;;;;;;3.75;1.05;;;14.10;99.90;;;;;;5101647;28;20012;-76
2021/11/12 11:25:59;;;;;;;7.63;1.75;;;14.20;99.90;;;;;;5106245;28;20016;-76
2021/11/12 11:28:25;;;;;;;3.55;0.90;;;14.30;99.90;;;;;;5093955;28;20020;-77
2021/11/12 11:30:51;;;;;;;;;;;14.40;99.90;;;;;;5102835;28;20386;-77
2021/11/12 11:33:18;;;;;;;10.23;1.70;;;14.50;99.90;;;;;;5084569;28;20037;-76
2021/11/12 11:35:46;;;;;;;12.68;1.80;;;14.60;99.90;;;;;;5091129;28;20433;-76
2021/11/12 11:38:14;;;;;;;6.38;1.70;;;14.60;99.90;;;;;;5102153;28;20426;-77
2021/11/12 11:40:44;;;;;;;5.50;1.05;;;14.60;99.90;;;;;;5097599;28;20028;-79
2021/11/12 11:43:10;;;;;;;4.88;1.30;;;14.60;99.90;;;;;;5101574;28;20115;-80
2021/11/12 11:45:36;;;;;;;8.15;1.38;;;14.60;99.90;;;;;;5107011;28;20030;-76
2021/11/12 11:48:03;;;;;;;6.68;1.83;;;14.70;99.90;;;;;;5092442;28;20044;-77
2021/11/12 11:50:32;;;;;;;6.80;1.33;;;14.80;99.90;;;;;;5069659;28;20394;-79
2021/11/12 11:53:30;;;;;;;7.95;1.80;;;14.80;99.90;;;;;;5113201;28;20618;-77
2021/11/12 11:56:30;;;;;;;7.78;1.45;;;14.80;99.80;;;;;;5093148;28;20038;-76
2021/11/12 11:59:19;;;;;;;10.30;2.13;;;14.80;99.80;;;;;;5103210;28;20027;-77
2021/11/12 12:01:55;;;;;;;11.10;2.40;;;14.90;99.80;;;;;;5110167;28;20064;-78
2021/11/12 12:04:32;;;;;;;8.27;2.13;;;14.90;99.60;;;;;;5112986;28;20020;-76
2021/11/12 12:07:01;;;;;;;10.27;2.35;;;14.90;99.50;;;;;;5111098;28;20031;-77
2021/11/12 12:09:41;;;;;;;9.45;2.72;;;15.00;99.40;;;;;;5112357;28;20765;-77
2021/11/12 12:12:08;;;;;;;9.50;2.13;;;15.00;99.40;;;;;;5106868;28;20127;-77
2021/11/12 12:14:38;;;;;;;7.55;1.52;;;15.10;99.50;;;;;;5099524;28;20430;-77
2021/11/12 12:17:11;;;;;;;8.98;2.28;;;15.20;99.50;;;;;;5100785;28;20506;-77
2021/11/12 12:19:48;;;;;;;4.68;1.40;;;15.40;99.40;;;;;;5101931;28;20047;-77
2021/11/12 12:40:28;;;;;;;5.85;1.20;;;15.60;98.70;;;;;;5112754;28;20106;-77
2021/11/12 13:25:42;;;;;;;8.07;2.25;;;15.30;97.50;;;;;;5115282;28;20051;-75
2021/11/12 13:28:20;;;;;;;7.20;1.30;;;15.20;97.50;;;;;;5114503;28;20027;-79
2021/11/12 13:31:00;;;;;;;7.30;2.03;;;15.10;97.60;;;;;;5104709;28;20039;-76
2021/11/12 13:33:49;;;;;;;6.35;1.90;;;15.10;97.70;;;;;;5094758;28;20469;-77
2021/11/12 13:36:37;;;;;;;7.95;1.95;;;15.10;97.70;;;;;;5093534;28;20432;-78
2021/11/12 13:39:19;;;;;;;4.97;1.38;;;15.10;97.90;;;;;;5093871;28;20024;-78
2021/11/12 13:41:55;;;;;;;3.30;1.02;;;15.20;98.10;;;;;;5093579;28;20103;-78
2021/11/12 13:44:30;;;;;;;3.70;1.02;;;15.30;98.00;;;;;;5093028;28;20024;-78
2021/11/12 13:47:11;;;;;;;5.93;1.60;;;15.50;98.10;;;;;;5094122;28;20016;-74
2021/11/12 13:49:52;;;;;;;5.57;1.88;;;15.70;97.90;;;;;;5091984;28;20079;-76
2021/11/12 13:52:27;;;;;;;7.30;2.03;;;15.90;97.70;;;;;;5092691;28;20046;-77
2021/11/12 13:55:02;;;;;;;7.68;1.90;;;16.00;97.30;;;;;;5093922;28;20020;-76
2021/11/12 13:57:29;;;;;;;6.20;1.73;;;16.10;96.90;;;;;;5093825;28;20056;-76
2021/11/12 13:59:58;;;;;;;7.05;1.83;;;16.00;96.60;;;;;;5092149;28;20114;-78
2021/11/12 14:02:31;;;;;;;4.63;1.20;;;15.90;96.40;;;;;;5093845;28;20098;-76
2021/11/12 14:05:13;;;;;;;4.63;1.35;;;15.80;96.40;;;;;;5093963;28;20059;-76
2021/11/12 14:07:39;;;;;;;11.52;2.85;;;15.80;96.60;;;;;;5091784;28;20055;-76
2021/11/12 14:10:08;;;;;;;;;;;15.80;96.70;;;;;;5094133;28;20019;-77
2021/11/12 14:12:35;;;;;;;7.30;2.15;;;15.90;96.90;;;;;;5092597;28;19912;-77
2021/11/12 14:15:38;;;;;;;3.78;1.40;;;15.90;96.50;;;;;;5092106;28;20024;-75
2021/11/12 14:24:34;;;;;;;5.75;1.40;;;15.70;96.40;;;;;;5030855;28;20702;-77
2021/11/12 14:27:15;;;;;;;7.22;1.55;;;15.60;96.50;;;;;;5030537;28;20033;-81
2021/11/12 14:35:09;;;;;;;2.88;0.70;;;15.50;96.60;;;;;;5092834;28;20527;-76
2021/11/12 14:40:49;;;;;;;6.55;1.63;;;15.50;96.30;;;;;;5093629;28;20556;-78
2021/11/12 14:46:24;;;;;;;6.28;1.30;;;15.30;96.20;;;;;;5093570;28;20074;-78
2021/11/12 14:48:57;;;;;;;4.05;0.80;;;15.30;96.20;;;;;;5092308;28;20074;-78
2021/11/12 14:51:57;;;;;;;4.43;1.05;;;15.30;96.10;;;;;;5096470;28;20024;-78
2021/11/12 14:54:37;;;;;;;6.22;1.48;;;15.30;95.80;;;;;;5093507;28;20020;-78
2021/11/12 14:57:08;;;;;;;3.70;1.10;;;15.40;95.50;;;;;;5092158;28;20476;-77
2021/11/12 14:59:38;;;;;;;5.13;1.63;;;15.40;95.30;;;;;;5092068;28;20024;-77
2021/11/12 15:02:09;;;;;;;5.60;1.10;;;15.40;95.00;;;;;;5091553;28;20346;-77
2021/11/12 15:04:35;;;;;;;4.43;1.10;;;15.40;94.80;;;;;;5094803;28;20033;-77
2021/11/12 15:07:01;;;;;;;7.78;1.60;;;15.40;94.70;;;;;;5090879;28;20122;-75
2021/11/12 15:09:32;;;;;;;6.95;1.55;;;15.40;94.50;;;;;;5106066;28;20039;-75
2021/11/12 15:12:00;;;;;;;5.20;1.60;;;15.40;94.30;;;;;;5089094;28;20056;-77
2021/11/12 15:14:27;;;;;;;4.80;1.42;;;15.30;94.20;;;;;;5098241;28;20035;-78
2021/11/12 15:16:53;;;;;;;6.38;1.30;;;15.30;94.10;;;;;;5081768;28;20024;-77
2021/11/12 15:19:22;;;;;;;9.23;1.77;;;15.20;94.00;;;;;;5098254;28;20031;-78
2021/11/12 15:22:01;;;;;;;16.65;4.93;;;15.10;94.00;;;;;;5108979;28;20133;-78
2021/11/12 15:29:52;;;;;;;5.90;1.25;;;14.60;93.60;;;;;;5107421;28;20374;-79
2021/11/12 15:32:29;;;;;;;6.53;2.03;;;14.50;93.70;;;;;;5087031;28;20016;-76
2021/11/12 15:35:01;;;;;;;5.75;1.50;;;14.40;93.80;;;;;;5095498;28;20044;-77
2021/11/12 15:40:05;;;;;;;8.93;1.58;;;14.30;93.90;;;;;;5102150;28;20504;-78
2021/11/12 15:43:08;;;;;;;10.20;1.80;;;14.40;94.10;;;;;;5090545;28;20054;-77
2021/11/12 15:48:10;;;;;;;7.18;1.55;;;14.50;94.00;;;;;;5097387;28;20390;-76
2021/11/12 16:06:49;;;;;;;5.80;1.92;;;14.40;93.40;;;;;;5104145;28;19960;-79
2021/11/12 16:25:11;;;;;;;7.90;1.60;;;14.10;93.50;;;;;;5102639;28;20063;-75
2021/11/12 16:27:43;;;;;;;7.07;1.60;;;14.10;93.60;;;;;;5108307;28;20023;-76
2021/11/12 16:30:11;;;;;;;7.45;2.13;;;14.10;93.60;;;;;;5109074;28;20034;-77
2021/11/12 16:32:40;;;;;;;7.38;1.80;;;14.00;93.60;;;;;;5100945;28;20024;-77
2021/11/12 16:35:12;;;;;;;5.35;1.27;;;14.00;93.50;;;;;;5096274;28;20059;-77
2021/11/12 16:37:38;;;;;;;7.25;1.10;;;14.00;93.40;;;;;;5104336;28;20406;-76
2021/11/12 16:40:12;;;;;;;8.25;1.80;;;13.90;93.30;;;;;;5107058;28;20107;-76
2021/11/12 16:47:52;;;;;;;6.82;1.50;;;13.90;93.50;;;;;;5100951;28;20351;-79
2021/11/12 17:06:06;;;;;;;7.18;1.80;;;13.80;93.90;;;;;;5104268;28;20063;-77
2021/11/12 17:21:27;;;;;;;9.60;3.03;;;13.90;94.30;;;;;;5115560;28;20106;-78
2021/11/12 17:47:51;;;;;;;7.05;2.13;;;13.60;94.70;;;;;;5115125;28;20092;-78
2021/11/12 18:03:27;;;;;;;6.57;1.88;;;13.50;95.00;;;;;;5113423;28;20101;-78
2021/11/12 18:22:08;;;;;;;6.50;1.50;;;13.50;95.50;;;;;;5113188;28;20679;-74
2021/11/12 21:48:36;;;;;;;4.90;1.13;;;13.10;96.50;;;;;;5113887;28;20066;-78
2021/11/12 21:51:03;;;;;;;3.08;1.30;;;13.20;96.60;;;;;;5111339;28;20024;-78
2021/11/12 21:53:31;;;;;;;6.10;1.70;;;13.10;96.60;;;;;;5111075;28;20047;-78
2021/11/12 21:55:58;;;;;;;3.38;1.30;;;13.10;96.60;;;;;;5111408;28;20027;-77
2021/11/12 21:58:28;;;;;;;6.15;1.58;;;13.00;96.60;;;;;;5112622;28;20012;-77
2021/11/12 22:00:56;;;;;;;3.65;1.33;;;13.00;96.70;;;;;;5112536;28;20110;-77
2021/11/12 22:03:23;;;;;;;4.15;1.40;;;12.90;96.70;;;;;;5111115;28;20038;-77
2021/11/12 22:05:49;;;;;;;6.18;1.85;;;12.80;96.70;;;;;;5094157;28;20560;-78
2021/11/12 22:08:15;;;;;;;;;;;12.80;96.80;;;;;;5111301;28;20038;-78
2021/11/12 22:10:42;;;;;;;4.38;1.30;;;12.70;97.00;;;;;;5112071;28;19907;-79
2021/11/12 22:13:09;;;;;;;6.57;1.67;;;12.60;97.00;;;;;;5110748;28;20076;-78
2021/11/12 22:15:35;;;;;;;4.22;1.05;;;12.60;97.20;;;;;;5110713;28;20024;-76
2021/11/12 22:18:01;;;;;;;;;;;12.60;97.30;;;;;;5112464;28;20076;-78
2021/11/12 22:20:27;;;;;;;4.18;1.33;;;12.60;97.40;;;;;;5110519;28;19908;-78
2021/11/12 22:22:53;;;;;;;3.80;1.00;;;12.70;97.40;;;;;;5110448;28;20028;-79
2021/11/12 22:25:19;;;;;;;4.15;1.38;;;12.70;97.40;;;;;;5112464;28;20043;-77
2021/11/12 22:27:45;;;;;;;5.07;1.45;;;12.80;97.50;;;;;;5112229;28;20028;-79
2021/11/12 22:30:12;;;;;;;4.38;1.10;;;12.80;97.70;;;;;;5111964;28;20370;-78
2021/11/12 22:32:38;;;;;;;6.25;1.92;;;12.80;97.50;;;;;;5094045;28;20115;-78
2021/11/12 22:35:05;;;;;;;5.93;1.58;;;12.90;97.50;;;;;;5110933;28;20397;-80
2021/11/12 22:37:31;;;;;;;4.05;1.20;;;12.90;97.50;;;;;;5112130;28;20020;-79
2021/11/12 22:39:57;;;;;;;4.60;1.33;;;12.90;97.50;;;;;;5110861;28;20028;-77
2021/11/12 22:42:23;;;;;;;5.47;1.45;;;12.80;97.60;;;;;;5110811;28;20031;-79
2021/11/12 22:44:49;;;;;;;;;;;12.80;97.60;;;;;;5112434;28;20119;-79
2021/11/12 22:47:15;;;;;;;3.08;1.30;;;12.80;97.70;;;;;;5110510;28;20074;-77
2021/11/12 22:49:41;;;;;;;6.13;1.55;;;12.80;97.60;;;;;;5110469;28;20059;-79
2021/11/12 22:52:08;;;;;;;7.13;1.80;;;12.80;97.70;;;;;;5110609;28;20107;-79
2021/11/12 22:54:33;;;;;;;6.05;1.90;;;12.80;97.80;;;;;;5111612;28;20026;-78
2021/11/12 22:56:59;;;;;;;9.90;3.55;;;12.80;97.80;;;;;;5110030;28;20019;-79
2021/11/12 22:59:25;;;;;;;5.47;1.90;;;12.80;97.90;;;;;;5111502;28;20019;-79
2021/11/12 23:01:51;;;;;;;4.80;1.52;;;12.80;97.90;;;;;;5076243;28;20063;-77
2021/11/12 23:04:16;;;;;;;4.05;1.27;;;12.90;97.90;;;;;;5110306;28;20035;-77
2021/11/12 23:06:43;;;;;;;3.45;1.23;;;12.90;97.90;;;;;;5110035;28;20130;-79
2021/11/12 23:09:09;;;;;;;;;;;12.90;97.90;;;;;;5110498;28;20154;-77
2021/11/12 23:11:36;;;;;;;4.68;1.42;;;12.90;97.90;;;;;;5109819;28;20281;-79
2021/11/12 23:14:02;;;;;;;4.53;1.80;;;12.90;97.90;;;;;;5111440;28;20111;-79
2021/11/12 23:16:28;;;;;;;;;;;12.90;97.90;;;;;;5110879;28;20501;-78
2021/11/12 23:18:53;;;;;;;4.18;1.33;;;12.90;97.90;;;;;;5110282;28;19939;-78
2021/11/12 23:21:21;;;;;;;3.45;1.33;;;12.90;97.90;;;;;;5093327;28;20028;-79
2021/11/12 23:23:49;;;;;;;3.85;1.40;;;12.90;97.90;;;;;;5110197;28;20106;-79